Flight Track Log - Related Links

Times and Time Zones

All times are in EDT time to prevent confusion due to time zone crossing. See the N63981 flight status page for this flight to view local times or setup timezone preferences in your user account.

Time Position Orientation Groundspeed Altitude Reporting Facility
EDT Latitude Longitude Course Direction KTS MPH feet Rate Location/Type
Thu 04:13:43 PM 40.0606 -79.0178 203° Southwest 112 129 2,800  Level Cleveland Center
Thu 04:14:07 PM 40.0589 -79.0369 264° West 126 145 3,000 532 Climbing Cleveland Center
Thu 04:15:02 PM 40.0383 -79.0672 228° Southwest 129 148 3,500 678 Climbing Cleveland Center
Thu 04:16:02 PM 40.0072 -79.0842 203° Southwest 117 135 4,300 744 Climbing Cleveland Center
Thu 04:17:03 PM 39.9761 -79.0875 185° South 111 128 5,000 656 Climbing Cleveland Center
Thu 04:18:10 PM 39.9428 -79.0992 195° South 114 131 5,700 545 Climbing Cleveland Center
Thu 04:19:00 PM 39.7888 -79.1394 203° Southwest  Level FlightAware Approximate
Thu 04:19:04 PM 39.9139 -79.1133 201° Southwest 114 131 6,100  Level Cleveland Center
Thu 04:20:05 PM 39.8828 -79.1194 189° South 113 130 6,400 295 Climbing Cleveland Center
Thu 04:21:06 PM 39.8517 -79.1364 203° Southwest 115 132 6,700 347 Climbing Cleveland Center
Thu 04:22:06 PM 39.8206 -79.1478 196° South 115 132 7,100 397 Climbing Cleveland Center
Thu 04:23:07 PM 39.7914 -79.1619 200° South 115 132 7,500 443 Climbing Cleveland Center
Thu 04:24:08 PM 39.7603 -79.1761 199° South 117 135 8,000 248 Climbing Cleveland Center
Thu 04:25:08 PM 39.7272 -79.1983 207° Southwest 126 145 8,000  Level Cleveland Center
Thu 04:26:09 PM 39.6881 -79.2181 201° Southwest 144 166 8,000 -8 Level Cleveland Center
Thu 04:28:00 PM 39.6077 -79.2426 193° South  Level FlightAware Approximate
Thu 04:35:00 PM 39.3193 -79.4009 204° Southwest  Level FlightAware Approximate
Thu 04:36:00 PM 39.2785 -79.4241 204° Southwest  Level FlightAware Approximate
Thu 04:36:59 PM 39.2831 -79.4528 204° Southwest 150 173 7,900  Level Washington Center
Thu 04:37:00 PM 39.2377 -79.4473 204° Southwest  Level FlightAware Approximate
Thu 04:38:00 PM 39.1968 -79.4705 204° Southwest  Level FlightAware Approximate
Thu 04:38:01 PM 39.2467 -79.4753 206° Southwest 150 173 7,900  Level Washington Center
Thu 04:38:58 PM 39.2086 -79.4972 204° Southwest 150 173 7,900  Level Washington Center
Thu 04:39:00 PM 39.1560 -79.4936 204° Southwest  Level FlightAware Approximate
Thu 04:39:58 PM 39.1703 -79.5192 204° Southwest 155 178 7,900  Level Washington Center
Thu 04:40:00 PM 39.1152 -79.5167 204° Southwest  Level FlightAware Approximate
Thu 04:41:00 PM 39.0743 -79.5398 204° Southwest  Level FlightAware Approximate
Thu 04:41:00 PM 39.1301 -79.5390 201° Southwest  Level FlightAware Approximate
Thu 04:45:00 PM 38.9769 -79.6289 201° Southwest 171 197 7,900  Level Washington Center
Thu 04:46:00 PM 38.9374 -79.6457 198° South  Level Estimated
Thu 04:46:00 PM 38.9386 -79.6511 198° South 156 180 7,900  Level Washington Center
Thu 04:47:01 PM 38.9003 -79.6756 206° Southwest 145 167 7,900  Level Washington Center
Thu 04:47:58 PM 38.8642 -79.6950 203° Southwest 145 167 7,900  Level Washington Center
Thu 04:48:00 PM 38.8579 -79.6729 201° Southwest  Level FlightAware Approximate
Thu 04:48:58 PM 38.8281 -79.7142 202° Southwest 145 167 7,900  Level Washington Center
Thu 04:49:00 PM 38.8190 -79.6919 201° Southwest  Level FlightAware Approximate
Thu 04:49:59 PM 38.7900 -79.7358 204° Southwest 145 167 7,900  Level Washington Center
Thu 04:50:00 PM 38.7801 -79.7109 201° Southwest  Level FlightAware Approximate
Thu 04:50:59 PM 38.7558 -79.7528 201° Southwest 150 173 8,000  Level Washington Center
Thu 04:52:00 PM 38.7178 -79.7692 199° South 150 173 8,300 250 Climbing Washington Center
Thu 04:52:59 PM 38.6858 -79.7861 202° Southwest 150 173 8,500 252 Climbing Washington Center
Thu 04:53:00 PM 38.6607 -79.7627 198° South  Level Estimated
Thu 04:53:59 PM 38.6478 -79.8078 204° Southwest 145 167 8,800  Level Washington Center
Thu 04:54:00 PM 38.6211 -79.7793 198° South  Level Estimated
Thu 04:54:59 PM 38.6117 -79.8244 200° South 145 167 9,100  Level Washington Center
Thu 04:56:00 PM 38.5753 -79.8461 205° Southwest 145 167 9,400 250 Climbing Washington Center
Thu 04:56:59 PM 38.5414 -79.8628 201° Southwest 140 161 9,600 252 Climbing Washington Center
Thu 04:57:59 PM 38.5117 -79.8822 207° Southwest 134 154 9,900 248 Climbing Washington Center
Thu 04:59:00 PM 38.4778 -79.8961 198° South 134 154 10,100 101 Climbing Washington Center
Thu 04:59:58 PM 38.4417 -79.9128 200° South 139 160 10,100  Level Washington Center
Thu 05:00:59 PM 38.4014 -79.9314 200° South 144 166 10,100  Level Washington Center
Thu 05:01:59 PM 38.3608 -79.9531 203° Southwest 149 171 10,100  Level Washington Center
Thu 05:03:00 PM 38.3225 -79.9744 204° Southwest 155 178 10,100  Level Washington Center
Thu 05:04:00 PM 38.2842 -79.9961 204° Southwest 155 178 10,100  Level Washington Center
Thu 05:04:58 PM 38.2522 -80.0153 205° Southwest 155 178 10,100  Level Washington Center
Thu 05:05:59 PM 38.2142 -80.0342 201° Southwest 155 178 10,100  Level Washington Center
Thu 05:07:00 PM 38.1758 -80.0558 204° Southwest 155 178 10,100  Level Washington Center
Thu 05:08:00 PM 38.1375 -80.0747 201° Southwest 155 178 10,100  Level Washington Center
Thu 05:08:58 PM 38.0969 -80.0986 205° Southwest 155 178 10,100  Level Washington Center
Thu 05:09:58 PM 38.0586 -80.1172 201° Southwest 155 178 10,100  Level Washington Center
Thu 05:10:59 PM 38.0183 -80.1386 203° Southwest 155 178 10,100  Level Washington Center
Thu 05:11:59 PM 37.9842 -80.1578 204° Southwest 155 178 10,100  Level Washington Center
Thu 05:13:00 PM 37.9458 -80.1764 201° Southwest 155 178 10,100  Level Washington Center
Thu 05:14:00 PM 37.9075 -80.1978 204° Southwest 155 178 10,100 -51 Level Washington Center
Thu 05:14:58 PM 37.8692 -80.2192 204° Southwest 155 178 10,000 -51 Descending Washington Center
Thu 05:15:58 PM 37.8286 -80.2431 205° Southwest 155 178 10,000  Level Washington Center
Thu 05:16:59 PM 37.7883 -80.2614 200° South 155 178 10,000  Level Washington Center
Thu 05:18:00 PM 37.7519 -80.2803 202° Southwest 155 178 10,000  Level Washington Center
Thu 05:18:58 PM 37.7158 -80.2989 202° Southwest 155 178 10,000  Level Washington Center
Thu 05:19:59 PM 37.6797 -80.3178 202° Southwest 155 178 10,000  Level Washington Center
Thu 05:20:59 PM 37.6414 -80.3389 204° Southwest 155 178 10,000  Level Washington Center
Thu 05:22:00 PM 37.6008 -80.3572 200° South 155 178 10,000  Level Washington Center
Thu 05:23:00 PM 37.5583 -80.3808 204° Southwest 155 178 10,000  Level Washington Center
Thu 05:23:58 PM 37.5200 -80.3967 198° South 155 178 10,000  Level Washington Center
Thu 05:24:59 PM 37.4817 -80.4181 204° Southwest 155 178 10,000  Level Washington Center
Thu 05:26:00 PM 37.4411 -80.4389 202° Southwest 155 178 10,000 50 Level Washington Center
Thu 05:27:00 PM 37.4050 -80.4550 200° South 155 178 10,100 50 Climbing Washington Center
Thu 05:28:01 PM 37.3644 -80.4783 205° Southwest 155 178 10,100  Level Washington Center
Thu 05:28:58 PM 37.3261 -80.4994 204° Southwest 155 178 10,100  Level Washington Center
Thu 05:30:01 PM 37.2758 -80.5231 200° South 178 205 10,100  Level Atlanta Center
Thu 05:31:01 PM 37.2369 -80.5483 207° Southwest 167 192 10,100  Level Atlanta Center
Thu 05:32:01 PM 37.1997 -80.5656 200° South 167 192 10,100  Level Atlanta Center
Thu 05:33:01 PM 37.1586 -80.5831 199° South 167 192 10,100  Level Atlanta Center
Thu 05:34:01 PM 37.1175 -80.6056 204° Southwest 167 192 10,100  Level Atlanta Center
Thu 05:35:01 PM 37.0722 -80.6258 200° South 167 192 10,100  Level Atlanta Center
Thu 05:36:01 PM 37.0311 -80.6458 201° Southwest 167 192 10,100  Level Atlanta Center
Thu 05:37:01 PM 36.9900 -80.6658 201° Southwest 167 192 10,100  Level Atlanta Center
Thu 05:38:01 PM 36.9486 -80.6831 198° South 167 192 10,100  Level Atlanta Center
Thu 05:39:01 PM 36.9139 -80.7053 207° Southwest 167 192 10,100  Level Atlanta Center
Thu 05:40:01 PM 36.8728 -80.7228 199° South 167 192 10,100  Level Atlanta Center
Thu 05:41:01 PM 36.8336 -80.7450 204° Southwest 167 192 10,100  Level Atlanta Center
Thu 05:42:01 PM 36.7925 -80.7650 201° Southwest 162 186 10,100 -50 Level Atlanta Center
Thu 05:43:01 PM 36.7492 -80.7875 203° Southwest 162 186 10,000 -50 Descending Atlanta Center
Thu 05:44:01 PM 36.7081 -80.8072 201° Southwest 162 186 10,000  Level Atlanta Center
Thu 05:45:01 PM 36.6711 -80.8294 206° Southwest 162 186 10,000  Level Atlanta Center
Thu 05:46:01 PM 36.6319 -80.8464 199° South 162 186 10,000  Level Atlanta Center
Thu 05:47:01 PM 36.5931 -80.8689 205° Southwest 162 186 10,000  Level Atlanta Center
Thu 05:48:01 PM 36.5517 -80.8886 201° Southwest 157 181 10,000  Level Atlanta Center
Thu 05:49:01 PM 36.5147 -80.9106 206° Southwest 157 181 10,000  Level Atlanta Center
Thu 05:50:01 PM 36.4756 -80.9303 202° Southwest 157 181 10,000  Level Atlanta Center
Thu 05:51:01 PM 36.4344 -80.9550 206° Southwest 157 181 10,000  Level Atlanta Center
Thu 05:52:01 PM 36.3956 -80.9772 205° Southwest 157 181 10,000 -133 Level Atlanta Center
Thu 05:54:01 PM 36.3092 -81.0242 204° Southwest 157 181 9,600 -267 Descending Atlanta Center
Thu 05:55:01 PM 36.2656 -81.0389 195° South 163 188 9,200 -350 Descending Atlanta Center
Thu 05:56:01 PM 36.2181 -81.0508 191° South 163 188 8,900 -350 Descending Atlanta Center
Thu 05:57:01 PM 36.1722 -81.0550 184° South 163 188 8,500 -300 Descending Atlanta Center
Thu 05:58:01 PM 36.1264 -81.0569 182° South 163 188 8,300 -350 Descending Atlanta Center
Thu 05:59:01 PM 36.0783 -81.0611 184° South 169 194 7,800 -400 Descending Atlanta Center
Thu 06:00:01 PM 36.0306 -81.0628 182° South 174 200 7,500 -400 Descending Atlanta Center
Thu 06:01:01 PM 35.9889 -81.0669 185° South 179 206 7,000 -450 Descending Atlanta Center
Thu 06:02:01 PM 35.9389 -81.0714 184° South 179 206 6,600 -424 Descending Atlanta Center
Thu 06:02:40 PM 35.9036 -81.0728 182° South 174 200 6,300 -400 Descending Atlanta Center
Thu 06:03:01 PM 35.8911 -81.0756 190° South 179 206 6,200 -329 Descending Atlanta Center
Thu 06:03:53 PM 35.8453 -81.0800 184° South 174 200 5,900 -159 Descending Atlanta Center
Thu 06:04:54 PM 35.7994 -81.0867 187° South 164 189 5,900  Level Atlanta Center
Thu 06:05:54 PM 35.7581 -81.0933 187° South 156 180 5,900  Level Atlanta Center
Thu 06:07:01 PM 35.7081 -81.0978 184° South 157 181 5,900 -148 Level Atlanta Center
Thu 06:07:56 PM 35.6644 -81.1094 192° South 167 192 5,600 -362 Descending Atlanta Center
Thu 06:08:57 PM 35.6167 -81.1189 189° South 171 197 5,200 -362 Descending Atlanta Center
Thu 06:09:52 PM 35.5733 -81.1331 195° South 174 200 4,900 -387 Descending Atlanta Center
Thu 06:11:01 PM 35.5281 -81.1603 206° Southwest 172 198 4,400 -443 Descending Atlanta Center
Thu 06:11:54 PM 35.4869 -81.1897 210° Southwest 179 206 4,000 -211 Descending Atlanta Center
Thu 06:12:55 PM 35.4419 -81.2219 210° Southwest 171 197 4,000  Level Atlanta Center
Thu 06:13:57 PM 35.4028 -81.2489 209° Southwest 165 190 4,000 -47 Level Atlanta Center
Thu 06:15:04 PM 35.3617 -81.2706 203° Southwest 155 178 3,900 -316 Descending Atlanta Center
Thu 06:16:10 PM 35.3092 -81.2647 175° South 160 184 3,300 -403 Descending Atlanta Center
Thu 06:17:18 PM 35.2633 -81.2586 174° South 154 177 3,000 -155 Descending Atlanta Center
Thu 06:18:06 PM 35.2297 -81.2572 178° South 142 163 3,000  Level Atlanta Center
Thu 06:19:14 PM 35.1878 -81.2458 167° South 128 147 3,000 -295 Level Atlanta Center
Thu 06:20:08 PM 35.1581 -81.2239 149° Southeast 132 152 2,400 -667 Descending Atlanta Center

Login

Don't have an account? Register now (free) for customized features, flight alerts, and more!